createdAt,value
2023-05-10T05:25:29.568Z,11.92
2023-05-10T05:27:56.716Z,11.77
2023-05-10T05:30:23.585Z,11.69
2023-05-10T05:32:50.560Z,11.63
2023-05-10T05:35:17.941Z,11.61
2023-05-10T05:37:45.140Z,11.56
2023-05-10T05:40:15.271Z,11.52
2023-05-10T05:42:42.574Z,11.54
2023-05-10T05:45:14.078Z,11.64
2023-05-10T05:47:41.495Z,11.79
2023-05-10T05:50:09.365Z,11.95
2023-05-10T05:52:37.175Z,11.96
2023-05-10T05:55:04.800Z,11.92
2023-05-10T05:57:31.749Z,11.92
2023-05-10T05:59:58.945Z,11.91
2023-05-10T06:02:25.872Z,11.93
2023-05-10T06:04:52.965Z,11.93
2023-05-10T06:07:19.894Z,12.00
2023-05-10T06:09:46.857Z,12.25
2023-05-10T06:12:13.819Z,12.49
2023-05-10T06:14:40.755Z,12.83
2023-05-10T06:17:12.379Z,13.14
2023-05-10T06:19:43.530Z,13.39
2023-05-10T06:22:12.011Z,13.55
2023-05-10T06:24:38.947Z,13.63
2023-05-10T06:27:05.852Z,13.62
2023-05-10T06:29:33.332Z,13.53
2023-05-10T06:32:00.468Z,13.45
2023-05-10T06:34:27.526Z,13.45
2023-05-10T06:36:54.601Z,13.50
2023-05-10T06:39:21.523Z,13.47
2023-05-10T06:41:48.373Z,13.45
2023-05-10T06:44:15.356Z,13.44
2023-05-10T06:46:43.135Z,13.43
2023-05-10T06:49:10.297Z,13.38
2023-05-10T06:51:37.384Z,13.26
2023-05-10T06:54:04.307Z,13.23
2023-05-10T06:56:31.160Z,13.15
2023-05-10T06:58:58.076Z,13.09
2023-05-10T07:01:25.105Z,12.99
2023-05-10T07:03:52.178Z,12.96
2023-05-10T07:06:32.310Z,13.06
2023-05-10T07:09:00.554Z,13.07
2023-05-10T07:11:27.862Z,13.01
2023-05-10T07:13:54.900Z,12.93
2023-05-10T07:16:22.799Z,12.89
2023-05-10T07:18:51.560Z,12.80
2023-05-10T07:21:18.553Z,12.67
2023-05-10T07:23:45.556Z,12.55
2023-05-10T07:26:12.789Z,12.54
2023-05-10T07:28:40.245Z,12.56
2023-05-10T07:31:07.246Z,12.55
2023-05-10T07:33:34.415Z,12.52
2023-05-10T07:36:01.469Z,12.54
2023-05-10T07:38:28.822Z,12.51
2023-05-10T07:40:55.964Z,12.40
2023-05-10T13:23:58.054Z,12.32
2023-05-10T13:26:25.119Z,12.32
2023-05-10T13:28:52.937Z,12.26
2023-05-10T13:31:20.040Z,12.19
2023-05-10T13:33:47.153Z,12.15
2023-05-10T13:36:14.408Z,12.09
2023-05-10T13:38:41.381Z,12.02
2023-05-10T13:41:08.296Z,11.97
2023-05-10T13:43:35.163Z,11.93
2023-05-10T13:46:03.935Z,11.92
2023-05-10T13:48:30.938Z,11.91
2023-05-10T13:50:58.152Z,11.92
2023-05-10T13:53:24.995Z,11.92
2023-05-10T13:56:10.271Z,11.91
2023-05-10T13:58:37.628Z,11.89
2023-05-10T14:01:05.945Z,11.92
2023-05-10T14:03:33.947Z,11.93
2023-05-10T14:06:01.669Z,11.96
2023-05-10T14:08:28.925Z,11.96
2023-05-10T14:10:57.713Z,11.97
2023-05-10T14:13:25.968Z,11.98
2023-05-10T14:15:54.736Z,11.99
2023-05-10T14:18:22.172Z,11.96
2023-05-10T14:20:50.014Z,11.91
2023-05-10T14:23:16.961Z,11.85
2023-05-10T14:25:43.873Z,11.86
2023-05-10T14:28:10.900Z,11.92
2023-05-10T14:30:37.924Z,11.94
2023-05-10T14:33:05.205Z,11.99
2023-05-10T14:35:32.277Z,12.06
2023-05-10T14:37:59.888Z,12.12
2023-05-10T14:40:27.070Z,12.19
2023-05-10T14:42:54.199Z,12.26
2023-05-10T14:45:21.840Z,12.29
2023-05-10T14:47:48.831Z,12.30
2023-05-10T14:50:28.280Z,12.28
2023-05-10T14:53:02.170Z,12.23
2023-05-10T14:55:29.210Z,12.18
2023-05-10T14:57:56.292Z,12.21
2023-05-10T15:00:25.076Z,12.24
2023-05-10T15:02:52.398Z,12.24
2023-05-10T15:05:19.953Z,12.22
2023-05-10T15:07:47.345Z,12.21
2023-05-10T15:10:15.223Z,12.20
2023-05-10T15:12:42.468Z,12.22
2023-05-10T15:15:09.626Z,12.24
2023-05-10T15:17:36.787Z,12.26
2023-05-10T15:20:04.729Z,12.27
2023-05-10T15:22:34.284Z,12.28
2023-05-10T15:25:01.439Z,12.28
2023-05-10T15:27:28.583Z,12.25
2023-05-10T15:29:56.366Z,12.25
2023-05-10T15:32:25.342Z,12.26
2023-05-10T15:34:52.289Z,12.27
2023-05-10T15:37:19.116Z,12.27
2023-05-10T15:39:45.983Z,12.26
2023-05-10T15:42:13.058Z,12.25
2023-05-10T15:44:39.992Z,12.28
2023-05-10T15:47:07.013Z,12.31
2023-05-10T15:49:34.318Z,12.35
2023-05-10T15:52:01.151Z,12.37
2023-05-10T15:54:28.303Z,12.38
2023-05-10T15:56:55.460Z,12.38
2023-05-10T15:59:22.418Z,12.36
2023-05-10T16:01:50.423Z,12.34
2023-05-10T16:04:17.954Z,12.30
2023-05-10T16:06:44.915Z,12.28
2023-05-10T16:09:11.851Z,12.26
2023-05-10T16:11:38.801Z,12.24
2023-05-10T16:14:07.116Z,12.20
2023-05-10T16:16:34.732Z,12.17
2023-05-10T16:19:03.721Z,12.15
2023-05-10T16:21:32.773Z,12.13
2023-05-10T16:24:03.221Z,12.09
2023-05-10T16:26:30.386Z,12.05
2023-05-10T16:28:57.263Z,12.02
2023-05-10T16:31:24.515Z,11.99
2023-05-10T16:33:51.601Z,11.96
2023-05-10T16:36:18.653Z,11.94
2023-05-10T16:38:45.510Z,11.92
2023-05-10T16:41:12.670Z,11.91
2023-05-10T16:43:39.520Z,11.89
2023-05-10T16:46:12.705Z,11.88
2023-05-10T16:48:39.843Z,11.86
2023-05-10T16:51:06.724Z,11.86
2023-05-10T16:53:34.394Z,11.85
2023-05-10T16:56:01.371Z,11.83
2023-05-10T16:58:28.359Z,11.81
2023-05-10T17:00:55.343Z,11.79
2023-05-10T17:03:22.493Z,11.75
2023-05-10T17:05:49.534Z,11.73
2023-05-10T17:08:16.597Z,11.71
2023-05-10T17:10:43.528Z,11.68
2023-05-10T17:13:11.117Z,11.67
2023-05-10T17:15:39.012Z,11.66
2023-05-10T17:18:07.307Z,11.64
2023-05-10T17:20:34.636Z,11.61
2023-05-10T17:23:03.239Z,11.60
2023-05-10T17:25:30.142Z,11.57
2023-05-10T17:27:56.980Z,11.55
2023-05-10T17:30:27.618Z,11.53
2023-05-10T17:32:54.769Z,11.49
2023-05-10T17:35:21.842Z,11.46
2023-05-10T17:37:48.884Z,11.43
2023-05-10T17:40:15.836Z,11.38
2023-05-10T17:42:42.886Z,11.32
2023-05-10T17:45:10.505Z,11.26
2023-05-10T17:47:37.910Z,11.19
2023-05-10T17:50:06.000Z,11.13
2023-05-10T17:52:33.727Z,11.06
2023-05-10T17:55:01.116Z,11.01
2023-05-10T17:57:28.378Z,10.97
2023-05-10T17:59:56.092Z,10.94
2023-05-10T18:02:23.146Z,10.91
2023-05-10T18:04:50.157Z,10.88
2023-05-10T18:07:17.196Z,10.84
2023-05-10T18:09:44.023Z,10.80
2023-05-10T18:12:10.899Z,10.76
2023-05-10T18:14:41.181Z,10.70
2023-05-10T18:17:09.691Z,10.66
2023-05-10T18:19:37.004Z,10.62
2023-05-10T18:22:03.922Z,10.59
2023-05-10T18:24:38.956Z,10.55
2023-05-10T18:27:08.946Z,10.52
2023-05-10T18:29:36.761Z,10.48
2023-05-10T18:32:03.682Z,10.47
2023-05-10T18:34:30.541Z,10.48
2023-05-10T18:36:57.799Z,10.45
2023-05-10T18:39:25.103Z,10.42
2023-05-10T18:41:52.021Z,10.39
2023-05-10T18:44:19.301Z,10.40
2023-05-10T18:46:46.528Z,10.40
2023-05-10T18:49:13.672Z,10.39
2023-05-10T18:51:40.560Z,10.36
2023-05-10T18:54:07.738Z,10.35
2023-05-10T18:56:34.766Z,10.33
2023-05-10T18:59:01.791Z,10.28
2023-05-10T19:01:28.756Z,10.24
2023-05-10T19:03:55.691Z,10.21
2023-05-10T19:06:22.569Z,10.22
2023-05-10T19:08:50.781Z,10.23
2023-05-10T19:11:17.635Z,10.23
2023-05-10T19:13:45.469Z,10.21
2023-05-10T19:16:14.338Z,10.21
2023-05-10T19:18:43.567Z,10.21
2023-05-10T19:21:11.699Z,10.20
2023-05-10T19:23:40.420Z,10.19
2023-05-10T19:26:10.669Z,10.17
2023-05-10T19:28:38.085Z,10.13
2023-05-10T19:31:06.013Z,10.10
2023-05-10T19:33:33.418Z,10.08
2023-05-10T19:36:00.386Z,10.06
2023-05-10T19:38:27.325Z,10.06
2023-05-10T19:41:00.161Z,10.04
2023-05-10T19:43:27.971Z,10.02
2023-05-10T19:45:55.674Z,10.00
2023-05-10T19:48:22.603Z,9.99
2023-05-10T19:50:49.546Z,9.97
2023-05-10T19:53:16.710Z,9.95
2023-05-10T19:55:43.739Z,9.93
2023-05-10T19:58:10.605Z,9.91
2023-05-10T20:00:38.068Z,9.89
2023-05-10T20:03:07.738Z,9.87
2023-05-10T20:05:36.075Z,9.86
2023-05-10T20:08:02.965Z,9.85
2023-05-10T20:10:29.874Z,9.84
2023-05-10T20:12:58.849Z,9.82
2023-05-10T20:15:26.020Z,9.78
2023-05-10T20:17:53.377Z,9.75
2023-05-10T20:20:21.081Z,9.73
2023-05-10T20:22:48.814Z,9.71
2023-05-10T20:25:16.019Z,9.69
2023-05-10T20:27:42.910Z,9.66
2023-05-10T20:30:10.513Z,9.64
2023-05-10T20:32:37.765Z,9.61
2023-05-10T20:35:05.514Z,9.56
2023-05-10T20:37:32.447Z,9.52
2023-05-10T20:39:59.357Z,9.50
2023-05-10T20:42:26.655Z,9.47
2023-05-10T20:44:53.622Z,9.45
2023-05-10T20:47:20.545Z,9.42
2023-05-10T20:49:47.399Z,9.38
2023-05-10T20:52:14.362Z,9.35
2023-05-10T20:54:41.623Z,9.32
2023-05-10T20:57:08.482Z,9.29
2023-05-10T20:59:35.516Z,9.26
2023-05-10T21:02:02.497Z,9.22
2023-05-10T21:04:29.476Z,9.19
2023-05-10T21:06:57.188Z,9.16
2023-05-10T21:09:24.111Z,9.13
2023-05-10T21:11:51.085Z,9.09
2023-05-10T21:14:17.972Z,9.05
2023-05-10T21:16:44.888Z,9.02
2023-05-10T21:19:12.050Z,8.97
2023-05-10T21:21:38.992Z,8.93
2023-05-10T21:24:06.882Z,8.89
2023-05-10T21:26:33.812Z,8.84
2023-05-10T21:29:00.790Z,8.81
2023-05-10T21:31:28.418Z,8.77
2023-05-10T21:33:55.508Z,8.73
2023-05-10T21:36:22.567Z,8.70
2023-05-10T21:38:50.721Z,8.66
2023-05-10T21:41:17.879Z,8.63
2023-05-10T21:43:44.826Z,8.60
2023-05-10T21:46:13.599Z,8.57
2023-05-10T21:48:40.573Z,8.54
2023-05-10T21:51:07.440Z,8.50
2023-05-10T21:53:36.521Z,8.46
2023-05-10T21:56:03.445Z,8.42
2023-05-10T21:58:30.431Z,8.40
2023-05-10T22:00:57.372Z,8.35
2023-05-10T22:03:24.497Z,8.31
2023-05-10T22:05:51.475Z,8.29
2023-05-10T22:08:18.320Z,8.25
2023-05-10T22:10:45.123Z,8.23
2023-05-10T22:13:11.966Z,8.23
2023-05-10T22:15:39.576Z,8.23
2023-05-10T22:18:06.473Z,8.24
2023-05-10T22:20:33.386Z,8.25
2023-05-10T22:23:01.022Z,8.25
2023-05-10T22:25:28.405Z,8.24
2023-05-10T22:27:55.363Z,8.23
2023-05-10T22:30:22.718Z,8.23
2023-05-10T22:32:49.681Z,8.22
2023-05-10T22:35:16.546Z,8.20
2023-05-10T22:37:43.472Z,8.19
2023-05-10T22:40:11.078Z,8.17
2023-05-10T22:42:38.316Z,8.15
2023-05-10T22:45:05.901Z,8.13
2023-05-10T22:47:33.676Z,8.12
2023-05-10T22:50:03.570Z,8.08
2023-05-10T22:52:30.590Z,8.05
2023-05-10T22:54:57.486Z,8.02
2023-05-10T22:57:24.715Z,8.02
2023-05-10T22:59:52.144Z,7.99
2023-05-10T23:02:19.116Z,7.99
2023-05-10T23:04:46.804Z,7.98
2023-05-10T23:07:13.836Z,7.93
2023-05-10T23:09:40.792Z,7.91
2023-05-10T23:12:07.781Z,7.91
2023-05-10T23:14:34.820Z,7.89
2023-05-10T23:17:01.733Z,7.89
2023-05-10T23:19:28.682Z,7.89
2023-05-10T23:21:55.530Z,7.88
2023-05-10T23:24:22.490Z,7.87
2023-05-10T23:26:49.321Z,7.85
2023-05-10T23:29:16.690Z,7.82
2023-05-10T23:31:46.334Z,7.80
2023-05-10T23:34:13.273Z,7.79
2023-05-10T23:36:40.206Z,7.76
2023-05-10T23:39:08.516Z,7.75
2023-05-10T23:41:35.379Z,7.73
2023-05-10T23:44:05.154Z,7.72
2023-05-10T23:46:31.996Z,7.71
2023-05-10T23:48:58.841Z,7.70
2023-05-10T23:51:25.694Z,7.69
2023-05-10T23:53:52.659Z,7.68
2023-05-10T23:56:19.596Z,7.67
2023-05-10T23:58:46.561Z,7.66
